UAL1448 KDTW-KDCA
Flight info
| Callsign | UAL1448 |
|---|---|
| Flight time | 1h 11m |
| Altitude | 37000 |
| Route | LIDDS4 GRIVY LUISE FRDMM6 |
| Aircraft | A320/M-SDE3FGHIRWY/LB1 |
Departure
| Time | 2026-05-07 01:12 |
|---|---|
| Airport | Detroit Metropolitan Wayne County Airport (KDTW) |
Arrival
| Time | 2026-05-07 02:23 |
|---|---|
| Airport | Ronald Reagan Washington National Airport (KDCA) |
| Time | Latitude | Longitude | Altitude | Speed | Heading |
|---|---|---|---|---|---|
| 2026-05-07 00:43 | 42.20480 | -83.36134 | 651 ft | 0 kts | 120° |
| 2026-05-07 00:59 | 42.20491 | -83.36159 | 650 ft | 3 kts | 117° |
| 2026-05-07 00:59 | 42.20500 | -83.36184 | 653 ft | 3 kts | 117° |
| 2026-05-07 00:59 | 42.20512 | -83.36211 | 652 ft | 3 kts | 135° |
| 2026-05-07 01:00 | 42.20524 | -83.36223 | 653 ft | 3 kts | 201° |
| 2026-05-07 01:00 | 42.20527 | -83.36222 | 653 ft | 0 kts | 207° |
| 2026-05-07 01:04 | 42.20525 | -83.36223 | 653 ft | 3 kts | 207° |
| 2026-05-07 01:05 | 42.20481 | -83.36256 | 650 ft | 12 kts | 210° |
| 2026-05-07 01:05 | 42.20418 | -83.36304 | 651 ft | 10 kts | 208° |
| 2026-05-07 01:05 | 42.20350 | -83.36353 | 650 ft | 12 kts | 208° |
| 2026-05-07 01:05 | 42.20261 | -83.36400 | 650 ft | 15 kts | 193° |
| 2026-05-07 01:06 | 42.20185 | -83.36340 | 650 ft | 15 kts | 112° |
| 2026-05-07 01:06 | 42.20169 | -83.36205 | 650 ft | 15 kts | 97° |
| 2026-05-07 01:06 | 42.20161 | -83.36050 | 650 ft | 18 kts | 90° |
| 2026-05-07 01:06 | 42.20164 | -83.35871 | 650 ft | 20 kts | 87° |
| 2026-05-07 01:07 | 42.20168 | -83.35681 | 650 ft | 20 kts | 89° |
| 2026-05-07 01:07 | 42.20171 | -83.35479 | 650 ft | 22 kts | 87° |
| 2026-05-07 01:07 | 42.20174 | -83.35291 | 650 ft | 14 kts | 91° |
| 2026-05-07 01:07 | 42.20224 | -83.35167 | 650 ft | 19 kts | 26° |
| 2026-05-07 01:08 | 42.20351 | -83.35074 | 651 ft | 21 kts | 27° |
| 2026-05-07 01:08 | 42.20472 | -83.35006 | 650 ft | 17 kts | 346° |
| 2026-05-07 01:08 | 42.20587 | -83.34983 | 650 ft | 17 kts | 30° |
| 2026-05-07 01:08 | 42.20683 | -83.34917 | 651 ft | 11 kts | 13° |
| 2026-05-07 01:09 | 42.20740 | -83.34972 | 650 ft | 12 kts | 299° |
| 2026-05-07 01:09 | 42.20756 | -83.35011 | 650 ft | 0 kts | 300° |
| 2026-05-07 01:09 | 42.20776 | -83.35060 | 650 ft | 12 kts | 299° |
| 2026-05-07 01:10 | 42.20834 | -83.35081 | 648 ft | 9 kts | 26° |
| 2026-05-07 01:10 | 42.20852 | -83.35069 | 648 ft | 0 kts | 28° |
| 2026-05-07 01:11 | 42.20876 | -83.35051 | 648 ft | 17 kts | 28° |
| 2026-05-07 01:11 | 42.21132 | -83.34863 | 647 ft | 75 kts | 28° |
| 2026-05-07 01:11 | 42.21787 | -83.34388 | 653 ft | 132 kts | 28° |
| 2026-05-07 01:12 | 42.22705 | -83.33719 | 831 ft | 159 kts | 27° |
| 2026-05-07 01:12 | 42.23710 | -83.33021 | 1471 ft | 162 kts | 30° |
| 2026-05-07 01:12 | 42.24534 | -83.31982 | 2147 ft | 164 kts | 56° |
| 2026-05-07 01:12 | 42.25076 | -83.30608 | 2717 ft | 175 kts | 63° |
| 2026-05-07 01:13 | 42.25673 | -83.29021 | 3091 ft | 198 kts | 63° |
| 2026-05-07 01:13 | 42.26328 | -83.27289 | 3376 ft | 222 kts | 63° |
| 2026-05-07 01:13 | 42.27079 | -83.25310 | 3873 ft | 241 kts | 63° |
| 2026-05-07 01:13 | 42.27719 | -83.23229 | 4633 ft | 248 kts | 80° |
| 2026-05-07 01:14 | 42.27601 | -83.20898 | 5295 ft | 261 kts | 111° |
| 2026-05-07 01:14 | 42.26694 | -83.18705 | 5975 ft | 272 kts | 122° |
| 2026-05-07 01:14 | 42.25693 | -83.16515 | 6827 ft | 276 kts | 122° |
| 2026-05-07 01:14 | 42.24684 | -83.14281 | 7703 ft | 280 kts | 121° |
| 2026-05-07 01:15 | 42.23665 | -83.12018 | 8530 ft | 284 kts | 121° |
| 2026-05-07 01:15 | 42.22635 | -83.09727 | 9363 ft | 288 kts | 121° |
| 2026-05-07 01:15 | 42.21592 | -83.07403 | 10168 ft | 292 kts | 121° |
| 2026-05-07 01:15 | 42.20516 | -83.04939 | 10458 ft | 315 kts | 120° |
| 2026-05-07 01:16 | 42.19411 | -83.02311 | 10913 ft | 329 kts | 119° |
| 2026-05-07 01:16 | 42.18285 | -82.99591 | 11601 ft | 334 kts | 119° |
| 2026-05-07 01:16 | 42.17151 | -82.96847 | 12313 ft | 338 kts | 119° |
| 2026-05-07 01:16 | 42.15995 | -82.94062 | 13018 ft | 341 kts | 119° |
| 2026-05-07 01:17 | 42.14828 | -82.91262 | 13715 ft | 345 kts | 120° |
| 2026-05-07 01:17 | 42.13641 | -82.88432 | 14404 ft | 348 kts | 120° |
| 2026-05-07 01:17 | 42.12439 | -82.85580 | 15066 ft | 352 kts | 120° |
| 2026-05-07 01:17 | 42.11222 | -82.82696 | 15704 ft | 355 kts | 120° |
| 2026-05-07 01:18 | 42.09998 | -82.79795 | 16327 ft | 359 kts | 120° |
| 2026-05-07 01:18 | 42.09177 | -82.77852 | 16741 ft | 361 kts | 120° |
| 2026-05-07 01:18 | 42.07939 | -82.74892 | 17342 ft | 364 kts | 117° |
| 2026-05-07 01:18 | 42.07005 | -82.71695 | 17937 ft | 368 kts | 105° |
| 2026-05-07 01:19 | 42.06311 | -82.68393 | 18516 ft | 371 kts | 112° |
| 2026-05-07 01:19 | 42.04993 | -82.65373 | 19096 ft | 374 kts | 130° |
| 2026-05-07 01:19 | 42.03281 | -82.62735 | 19697 ft | 377 kts | 131° |
| 2026-05-07 01:19 | 42.01513 | -82.60053 | 20304 ft | 381 kts | 132° |
| 2026-05-07 01:20 | 41.99762 | -82.57410 | 20858 ft | 384 kts | 132° |
| 2026-05-07 01:20 | 41.97978 | -82.54723 | 21393 ft | 387 kts | 132° |
| 2026-05-07 01:20 | 41.96175 | -82.52006 | 21922 ft | 390 kts | 132° |
| 2026-05-07 01:20 | 41.94367 | -82.49281 | 22434 ft | 393 kts | 132° |
| 2026-05-07 01:21 | 41.92539 | -82.46526 | 22950 ft | 396 kts | 132° |
| 2026-05-07 01:21 | 41.90695 | -82.43753 | 23465 ft | 399 kts | 132° |
| 2026-05-07 01:21 | 41.88840 | -82.40967 | 23961 ft | 403 kts | 132° |
| 2026-05-07 01:21 | 41.86968 | -82.38155 | 24451 ft | 406 kts | 132° |
| 2026-05-07 01:22 | 41.85078 | -82.35318 | 24903 ft | 408 kts | 132° |
| 2026-05-07 01:22 | 41.83180 | -82.32477 | 25343 ft | 411 kts | 132° |
| 2026-05-07 01:22 | 41.81260 | -82.29606 | 25788 ft | 414 kts | 132° |
| 2026-05-07 01:22 | 41.79328 | -82.26722 | 26210 ft | 417 kts | 132° |
| 2026-05-07 01:23 | 41.77387 | -82.23824 | 26620 ft | 420 kts | 132° |
| 2026-05-07 01:23 | 41.75433 | -82.20908 | 27020 ft | 422 kts | 132° |
| 2026-05-07 01:23 | 41.73462 | -82.17963 | 27404 ft | 425 kts | 132° |
| 2026-05-07 01:23 | 41.71488 | -82.15015 | 27774 ft | 427 kts | 132° |
| 2026-05-07 01:24 | 41.69497 | -82.12044 | 28141 ft | 430 kts | 132° |
| 2026-05-07 01:24 | 41.67494 | -82.09063 | 28498 ft | 432 kts | 132° |
| 2026-05-07 01:24 | 41.65473 | -82.06063 | 28865 ft | 434 kts | 132° |
| 2026-05-07 01:24 | 41.63448 | -82.03055 | 29218 ft | 437 kts | 132° |
| 2026-05-07 01:25 | 41.61408 | -82.00028 | 29557 ft | 439 kts | 132° |
| 2026-05-07 01:25 | 41.59360 | -81.96995 | 29899 ft | 442 kts | 132° |
| 2026-05-07 01:25 | 41.57292 | -81.93942 | 30233 ft | 444 kts | 132° |
| 2026-05-07 01:25 | 41.55215 | -81.90876 | 30559 ft | 446 kts | 132° |
| 2026-05-07 01:26 | 41.53129 | -81.87794 | 30870 ft | 448 kts | 132° |
| 2026-05-07 01:26 | 41.51035 | -81.84705 | 31178 ft | 451 kts | 132° |
| 2026-05-07 01:26 | 41.48924 | -81.81597 | 31521 ft | 451 kts | 132° |
| 2026-05-07 01:26 | 41.46794 | -81.78463 | 31956 ft | 450 kts | 132° |
| 2026-05-07 01:27 | 41.44686 | -81.75368 | 32373 ft | 449 kts | 132° |
| 2026-05-07 01:27 | 41.42584 | -81.72284 | 32784 ft | 448 kts | 132° |
| 2026-05-07 01:27 | 41.40501 | -81.69226 | 33192 ft | 448 kts | 132° |
| 2026-05-07 01:27 | 41.38408 | -81.66158 | 33589 ft | 447 kts | 132° |
| 2026-05-07 01:28 | 41.36321 | -81.63097 | 33991 ft | 446 kts | 132° |
| 2026-05-07 01:28 | 41.34231 | -81.60037 | 34383 ft | 445 kts | 132° |
| 2026-05-07 01:28 | 41.32149 | -81.56993 | 34758 ft | 444 kts | 132° |
| 2026-05-07 01:28 | 41.30070 | -81.53957 | 35107 ft | 444 kts | 132° |
| 2026-05-07 01:29 | 41.27994 | -81.50927 | 35442 ft | 443 kts | 132° |
| 2026-05-07 01:29 | 41.25914 | -81.47893 | 35766 ft | 443 kts | 132° |
| 2026-05-07 01:29 | 41.23845 | -81.44876 | 36086 ft | 442 kts | 132° |
| 2026-05-07 01:29 | 41.21770 | -81.41857 | 36382 ft | 442 kts | 133° |
| 2026-05-07 01:30 | 41.19692 | -81.38836 | 36672 ft | 442 kts | 133° |
| 2026-05-07 01:30 | 41.17620 | -81.35828 | 36936 ft | 442 kts | 133° |
| 2026-05-07 01:30 | 41.15539 | -81.32813 | 37024 ft | 443 kts | 133° |
| 2026-05-07 01:31 | 41.11378 | -81.26802 | 37009 ft | 442 kts | 134° |
| 2026-05-07 01:31 | 41.06505 | -81.21931 | 37009 ft | 440 kts | 154° |
| 2026-05-07 01:32 | 41.00722 | -81.19299 | 37010 ft | 440 kts | 165° |
| 2026-05-07 01:32 | 40.94792 | -81.17214 | 37010 ft | 441 kts | 165° |
| 2026-05-07 01:33 | 40.88860 | -81.15124 | 37016 ft | 441 kts | 165° |
| 2026-05-07 01:33 | 40.82933 | -81.13036 | 37019 ft | 442 kts | 165° |
| 2026-05-07 01:34 | 40.76989 | -81.10950 | 37023 ft | 442 kts | 165° |
| 2026-05-07 01:34 | 40.71074 | -81.08883 | 37025 ft | 442 kts | 165° |
| 2026-05-07 01:35 | 40.65094 | -81.06794 | 37025 ft | 442 kts | 165° |
| 2026-05-07 01:35 | 40.59190 | -81.04743 | 37025 ft | 442 kts | 165° |
| 2026-05-07 01:36 | 40.53239 | -81.02676 | 37025 ft | 442 kts | 165° |
| 2026-05-07 01:36 | 40.47299 | -81.00614 | 37025 ft | 442 kts | 165° |
| 2026-05-07 01:37 | 40.41347 | -80.98544 | 37025 ft | 442 kts | 165° |
| 2026-05-07 01:37 | 40.35412 | -80.96486 | 37025 ft | 442 kts | 165° |
| 2026-05-07 01:38 | 40.29460 | -80.94428 | 37025 ft | 442 kts | 165° |
| 2026-05-07 01:38 | 40.23519 | -80.92387 | 37027 ft | 442 kts | 165° |
| 2026-05-07 01:39 | 40.17559 | -80.90336 | 37027 ft | 442 kts | 165° |
| 2026-05-07 01:39 | 40.11614 | -80.88295 | 37026 ft | 442 kts | 165° |
| 2026-05-07 01:40 | 40.05670 | -80.86261 | 37026 ft | 442 kts | 165° |
| 2026-05-07 01:40 | 39.99722 | -80.84222 | 37027 ft | 442 kts | 165° |
| 2026-05-07 01:41 | 39.93776 | -80.82188 | 37027 ft | 442 kts | 165° |
| 2026-05-07 01:41 | 39.87826 | -80.80158 | 37028 ft | 442 kts | 166° |
| 2026-05-07 01:42 | 39.81872 | -80.78137 | 37028 ft | 442 kts | 166° |
| 2026-05-07 01:42 | 39.75969 | -80.76131 | 37026 ft | 442 kts | 165° |
| 2026-05-07 01:43 | 39.70016 | -80.74111 | 37024 ft | 442 kts | 166° |
| 2026-05-07 01:43 | 39.64079 | -80.72053 | 37023 ft | 442 kts | 161° |
| 2026-05-07 01:43 | 39.61240 | -80.70422 | 37024 ft | 441 kts | 149° |
| 2026-05-07 01:44 | 39.58742 | -80.68139 | 37022 ft | 441 kts | 138° |
| 2026-05-07 01:44 | 39.56619 | -80.65256 | 37021 ft | 441 kts | 127° |
| 2026-05-07 01:44 | 39.54989 | -80.61974 | 37017 ft | 441 kts | 116° |
| 2026-05-07 01:45 | 39.52607 | -80.54643 | 37011 ft | 441 kts | 112° |
| 2026-05-07 01:45 | 39.50277 | -80.47294 | 37010 ft | 442 kts | 112° |
| 2026-05-07 01:46 | 39.47921 | -80.39927 | 37012 ft | 443 kts | 112° |
| 2026-05-07 01:46 | 39.46742 | -80.36250 | 36893 ft | 445 kts | 112° |
| 2026-05-07 01:46 | 39.45553 | -80.32542 | 36648 ft | 445 kts | 112° |
| 2026-05-07 01:46 | 39.44368 | -80.28847 | 36452 ft | 444 kts | 112° |
| 2026-05-07 01:47 | 39.43184 | -80.25155 | 36663 ft | 446 kts | 112° |
| 2026-05-07 01:47 | 39.41994 | -80.21442 | 36888 ft | 448 kts | 112° |
| 2026-05-07 01:47 | 39.40800 | -80.17722 | 36994 ft | 449 kts | 112° |
| 2026-05-07 01:48 | 39.38393 | -80.10261 | 37009 ft | 449 kts | 112° |
| 2026-05-07 01:48 | 39.35980 | -80.02803 | 37009 ft | 449 kts | 112° |
| 2026-05-07 01:48 | 39.34777 | -79.99082 | 36705 ft | 447 kts | 112° |
| 2026-05-07 01:49 | 39.33587 | -79.95403 | 36327 ft | 443 kts | 112° |
| 2026-05-07 01:49 | 39.32404 | -79.91754 | 35928 ft | 440 kts | 112° |
| 2026-05-07 01:49 | 39.31227 | -79.88126 | 35542 ft | 436 kts | 112° |
| 2026-05-07 01:49 | 39.30072 | -79.84517 | 35162 ft | 433 kts | 109° |
| 2026-05-07 01:50 | 39.29291 | -79.80768 | 34776 ft | 430 kts | 99° |
| 2026-05-07 01:50 | 39.28958 | -79.76942 | 34365 ft | 428 kts | 95° |
| 2026-05-07 01:50 | 39.28662 | -79.73132 | 34047 ft | 426 kts | 96° |
| 2026-05-07 01:51 | 39.28054 | -79.65525 | 34009 ft | 427 kts | 96° |
| 2026-05-07 01:51 | 39.27437 | -79.57898 | 34005 ft | 428 kts | 96° |
| 2026-05-07 01:52 | 39.26820 | -79.50258 | 34010 ft | 428 kts | 96° |
| 2026-05-07 01:52 | 39.26189 | -79.42453 | 33628 ft | 448 kts | 96° |
| 2026-05-07 01:52 | 39.25862 | -79.38406 | 32670 ft | 456 kts | 96° |
| 2026-05-07 01:53 | 39.25531 | -79.34334 | 32000 ft | 456 kts | 96° |
| 2026-05-07 01:53 | 39.25198 | -79.30278 | 31439 ft | 453 kts | 96° |
| 2026-05-07 01:53 | 39.24863 | -79.26256 | 30922 ft | 450 kts | 96° |
| 2026-05-07 01:53 | 39.24530 | -79.22293 | 30424 ft | 447 kts | 96° |
| 2026-05-07 01:54 | 39.24192 | -79.18340 | 29927 ft | 443 kts | 96° |
| 2026-05-07 01:54 | 39.23855 | -79.14407 | 29434 ft | 439 kts | 96° |
| 2026-05-07 01:54 | 39.23523 | -79.10507 | 28926 ft | 435 kts | 96° |
| 2026-05-07 01:54 | 39.23192 | -79.06638 | 28446 ft | 431 kts | 96° |
| 2026-05-07 01:55 | 39.22865 | -79.02818 | 27963 ft | 427 kts | 96° |
| 2026-05-07 01:55 | 39.22538 | -78.99026 | 27453 ft | 424 kts | 96° |
| 2026-05-07 01:55 | 39.22210 | -78.95261 | 26948 ft | 421 kts | 96° |
| 2026-05-07 01:55 | 39.21869 | -78.91529 | 26489 ft | 417 kts | 97° |
| 2026-05-07 01:56 | 39.21515 | -78.87830 | 25943 ft | 415 kts | 97° |
| 2026-05-07 01:56 | 39.21150 | -78.84106 | 24335 ft | 426 kts | 97° |
| 2026-05-07 01:56 | 39.20765 | -78.80244 | 23143 ft | 424 kts | 97° |
| 2026-05-07 01:56 | 39.20393 | -78.76508 | 21818 ft | 422 kts | 97° |
| 2026-05-07 01:57 | 39.20027 | -78.72815 | 20837 ft | 415 kts | 97° |
| 2026-05-07 01:57 | 39.19665 | -78.69163 | 20383 ft | 395 kts | 97° |
| 2026-05-07 01:57 | 39.19330 | -78.65793 | 20189 ft | 372 kts | 97° |
| 2026-05-07 01:57 | 39.19013 | -78.62588 | 20019 ft | 349 kts | 97° |
| 2026-05-07 01:58 | 39.18716 | -78.59528 | 19989 ft | 343 kts | 97° |
| 2026-05-07 01:58 | 39.18415 | -78.56459 | 18994 ft | 350 kts | 97° |
| 2026-05-07 01:58 | 39.18102 | -78.53296 | 17647 ft | 362 kts | 97° |
| 2026-05-07 01:58 | 39.17774 | -78.50023 | 16282 ft | 373 kts | 97° |
| 2026-05-07 01:59 | 39.17446 | -78.46739 | 15535 ft | 363 kts | 97° |
| 2026-05-07 01:59 | 39.17131 | -78.43612 | 15244 ft | 341 kts | 97° |
| 2026-05-07 01:59 | 39.16836 | -78.40681 | 15092 ft | 321 kts | 97° |
| 2026-05-07 01:59 | 39.16544 | -78.37842 | 15053 ft | 317 kts | 99° |
| 2026-05-07 02:00 | 39.16043 | -78.35077 | 15064 ft | 316 kts | 108° |
| 2026-05-07 02:00 | 39.15364 | -78.32380 | 15066 ft | 317 kts | 108° |
| 2026-05-07 02:00 | 39.14692 | -78.29689 | 15066 ft | 316 kts | 108° |
| 2026-05-07 02:00 | 39.14240 | -78.27864 | 15064 ft | 316 kts | 108° |
| 2026-05-07 02:01 | 39.13582 | -78.25202 | 15064 ft | 316 kts | 108° |
| 2026-05-07 02:01 | 39.12919 | -78.22508 | 15067 ft | 316 kts | 108° |
| 2026-05-07 02:01 | 39.12242 | -78.19777 | 15065 ft | 316 kts | 108° |
| 2026-05-07 02:01 | 39.11572 | -78.17087 | 15066 ft | 315 kts | 108° |
| 2026-05-07 02:02 | 39.10903 | -78.14405 | 15064 ft | 315 kts | 108° |
| 2026-05-07 02:02 | 39.10231 | -78.11719 | 15067 ft | 315 kts | 108° |
| 2026-05-07 02:02 | 39.09557 | -78.09035 | 15062 ft | 315 kts | 108° |
| 2026-05-07 02:02 | 39.08876 | -78.06347 | 15068 ft | 315 kts | 108° |
| 2026-05-07 02:03 | 39.08193 | -78.03670 | 15064 ft | 315 kts | 108° |
| 2026-05-07 02:03 | 39.07504 | -78.00985 | 15064 ft | 315 kts | 108° |
| 2026-05-07 02:03 | 39.06814 | -77.98303 | 15065 ft | 315 kts | 108° |
| 2026-05-07 02:03 | 39.06135 | -77.95662 | 15068 ft | 315 kts | 108° |
| 2026-05-07 02:04 | 39.05439 | -77.92954 | 14379 ft | 326 kts | 108° |
| 2026-05-07 02:04 | 39.04701 | -77.90082 | 13611 ft | 337 kts | 108° |
| 2026-05-07 02:04 | 39.03986 | -77.87299 | 13459 ft | 317 kts | 108° |
| 2026-05-07 02:04 | 39.03311 | -77.84675 | 13033 ft | 306 kts | 108° |
| 2026-05-07 02:05 | 39.02657 | -77.82130 | 12454 ft | 301 kts | 108° |
| 2026-05-07 02:05 | 39.01979 | -77.79508 | 11319 ft | 314 kts | 108° |
| 2026-05-07 02:05 | 39.01285 | -77.76829 | 10531 ft | 316 kts | 108° |
| 2026-05-07 02:05 | 39.00610 | -77.74219 | 10262 ft | 298 kts | 108° |
| 2026-05-07 02:06 | 38.99965 | -77.71721 | 10130 ft | 293 kts | 108° |
| 2026-05-07 02:06 | 38.99324 | -77.69232 | 9780 ft | 295 kts | 108° |
| 2026-05-07 02:06 | 38.98667 | -77.66676 | 8764 ft | 306 kts | 108° |
| 2026-05-07 02:06 | 38.97894 | -77.64182 | 8334 ft | 294 kts | 115° |
| 2026-05-07 02:07 | 38.97060 | -77.61843 | 8178 ft | 285 kts | 114° |
| 2026-05-07 02:07 | 38.95438 | -77.57215 | 8119 ft | 284 kts | 114° |
| 2026-05-07 02:07 | 38.94627 | -77.54899 | 8119 ft | 284 kts | 114° |
| 2026-05-07 02:08 | 38.93816 | -77.52587 | 8120 ft | 284 kts | 114° |
| 2026-05-07 02:08 | 38.93007 | -77.50282 | 8120 ft | 284 kts | 114° |
| 2026-05-07 02:08 | 38.92196 | -77.47972 | 8120 ft | 283 kts | 114° |
| 2026-05-07 02:08 | 38.91385 | -77.45670 | 8120 ft | 283 kts | 114° |
| 2026-05-07 02:09 | 38.90518 | -77.43389 | 8120 ft | 283 kts | 118° |
| 2026-05-07 02:09 | 38.89579 | -77.41171 | 8120 ft | 283 kts | 119° |
| 2026-05-07 02:09 | 38.88603 | -77.38970 | 8118 ft | 283 kts | 120° |
| 2026-05-07 02:09 | 38.87605 | -77.36746 | 7367 ft | 292 kts | 120° |
| 2026-05-07 02:10 | 38.86582 | -77.34456 | 6529 ft | 296 kts | 120° |
| 2026-05-07 02:10 | 38.85583 | -77.32198 | 6248 ft | 280 kts | 120° |
| 2026-05-07 02:10 | 38.84630 | -77.30027 | 6124 ft | 276 kts | 120° |
| 2026-05-07 02:10 | 38.83706 | -77.27951 | 6116 ft | 257 kts | 120° |
| 2026-05-07 02:11 | 38.82853 | -77.26058 | 6116 ft | 236 kts | 120° |
| 2026-05-07 02:11 | 38.82031 | -77.24240 | 6119 ft | 233 kts | 120° |
| 2026-05-07 02:11 | 38.81219 | -77.22450 | 6119 ft | 233 kts | 120° |
| 2026-05-07 02:11 | 38.80402 | -77.20651 | 6123 ft | 233 kts | 120° |
| 2026-05-07 02:12 | 38.79590 | -77.18856 | 6120 ft | 232 kts | 120° |
| 2026-05-07 02:12 | 38.78783 | -77.17075 | 5887 ft | 231 kts | 120° |
| 2026-05-07 02:12 | 38.77978 | -77.15301 | 5606 ft | 230 kts | 120° |
| 2026-05-07 02:12 | 38.77083 | -77.13611 | 5318 ft | 228 kts | 133° |
| 2026-05-07 02:13 | 38.75883 | -77.12310 | 5033 ft | 227 kts | 149° |
| 2026-05-07 02:13 | 38.74450 | -77.11483 | 4764 ft | 225 kts | 165° |
| 2026-05-07 02:13 | 38.72911 | -77.11181 | 4464 ft | 224 kts | 178° |
| 2026-05-07 02:13 | 38.71358 | -77.11101 | 4193 ft | 222 kts | 178° |
| 2026-05-07 02:14 | 38.69811 | -77.11011 | 4089 ft | 223 kts | 178° |
| 2026-05-07 02:14 | 38.68281 | -77.10916 | 3942 ft | 216 kts | 178° |
| 2026-05-07 02:14 | 38.66826 | -77.10833 | 3817 ft | 206 kts | 178° |
| 2026-05-07 02:14 | 38.65418 | -77.10760 | 3688 ft | 196 kts | 178° |
| 2026-05-07 02:15 | 38.64088 | -77.10698 | 3506 ft | 188 kts | 179° |
| 2026-05-07 02:15 | 38.62780 | -77.10640 | 3181 ft | 188 kts | 179° |
| 2026-05-07 02:15 | 38.61481 | -77.10587 | 3118 ft | 188 kts | 179° |
| 2026-05-07 02:15 | 38.60177 | -77.10503 | 3112 ft | 189 kts | 171° |
| 2026-05-07 02:16 | 38.59040 | -77.09703 | 3117 ft | 190 kts | 130° |
| 2026-05-07 02:16 | 38.58549 | -77.08159 | 3122 ft | 191 kts | 97° |
| 2026-05-07 02:16 | 38.58488 | -77.06459 | 3120 ft | 191 kts | 90° |
| 2026-05-07 02:16 | 38.58493 | -77.04763 | 3120 ft | 191 kts | 89° |
| 2026-05-07 02:17 | 38.58646 | -77.03090 | 3117 ft | 191 kts | 67° |
| 2026-05-07 02:17 | 38.59493 | -77.01814 | 3122 ft | 190 kts | 35° |
| 2026-05-07 02:17 | 38.60608 | -77.00902 | 3121 ft | 190 kts | 30° |
| 2026-05-07 02:17 | 38.61750 | -77.00052 | 3120 ft | 190 kts | 29° |
| 2026-05-07 02:18 | 38.62947 | -76.99349 | 3119 ft | 190 kts | 15° |
| 2026-05-07 02:18 | 38.64241 | -76.99401 | 3121 ft | 188 kts | 339° |
| 2026-05-07 02:18 | 38.65410 | -77.00145 | 3121 ft | 188 kts | 330° |
| 2026-05-07 02:18 | 38.66554 | -77.00949 | 3116 ft | 188 kts | 330° |
| 2026-05-07 02:19 | 38.67705 | -77.01745 | 3120 ft | 188 kts | 334° |
| 2026-05-07 02:19 | 38.68924 | -77.02159 | 3116 ft | 174 kts | 354° |
| 2026-05-07 02:19 | 38.70100 | -77.02273 | 3117 ft | 166 kts | 355° |
| 2026-05-07 02:19 | 38.71237 | -77.02380 | 2930 ft | 164 kts | 355° |
| 2026-05-07 02:20 | 38.72432 | -77.02497 | 2295 ft | 181 kts | 355° |
| 2026-05-07 02:20 | 38.73703 | -77.02624 | 1781 ft | 178 kts | 355° |
| 2026-05-07 02:20 | 38.74833 | -77.02736 | 1713 ft | 151 kts | 355° |
| 2026-05-07 02:20 | 38.75845 | -77.02838 | 1712 ft | 143 kts | 354° |
| 2026-05-07 02:21 | 38.76834 | -77.02937 | 1579 ft | 141 kts | 354° |
| 2026-05-07 02:21 | 38.77799 | -77.03034 | 1334 ft | 138 kts | 354° |
| 2026-05-07 02:21 | 38.78754 | -77.03130 | 1122 ft | 138 kts | 354° |
| 2026-05-07 02:21 | 38.79692 | -77.03225 | 938 ft | 137 kts | 354° |
| 2026-05-07 02:22 | 38.80657 | -77.03322 | 747 ft | 137 kts | 354° |
| 2026-05-07 02:22 | 38.81601 | -77.03417 | 567 ft | 136 kts | 354° |
| 2026-05-07 02:22 | 38.82548 | -77.03512 | 385 ft | 136 kts | 355° |
| 2026-05-07 02:22 | 38.83486 | -77.03607 | 210 ft | 136 kts | 355° |
| 2026-05-07 02:23 | 38.84375 | -77.03696 | 39 ft | 135 kts | 355° |
| 2026-05-07 02:23 | 38.85180 | -77.03776 | 24 ft | 80 kts | 356° |
| 2026-05-07 02:23 | 38.85433 | -77.03801 | 25 ft | 0 kts | 349° |
| 2026-05-07 02:23 | 38.85455 | -77.03806 | 26 ft | 10 kts | 347° |
| 2026-05-07 02:24 | 38.85519 | -77.03872 | 27 ft | 4 kts | 310° |